Time;durP1;ratioP1;P1;durP2;ratioP2;P2;SDS_P1;SDS_P2;PMS_P1;PMS_P2;Temp;Humidity;BMP_temperature;BMP_pressure;BME280_temperature;BME280_humidity;BME280_pressure;Samples;Min_cycle;Max_cycle;Signal;HPM_P1;HPM_P2
2023/07/17 00:00:34;;;;;;;6.70;3.65;;;;;;;15.88;84.08;101466.88;6240796;23;20012;-68
2023/07/17 00:02:59;;;;;;;7.93;3.78;;;;;;;15.82;84.12;101478.47;6215480;23;20008;-68
2023/07/17 00:05:25;;;;;;;7.95;4.03;;;;;;;15.73;84.79;101476.88;6191323;23;20098;-68
2023/07/17 00:07:50;;;;;;;7.30;3.65;;;;;;;15.68;84.76;101475.25;6190447;23;20008;-68
2023/07/17 00:10:15;;;;;;;5.28;3.33;;;;;;;15.61;85.36;101474.50;6216646;23;20008;-68
2023/07/17 00:12:41;;;;;;;7.53;3.63;;;;;;;15.54;85.31;101472.91;6216832;23;20433;-68
2023/07/17 00:15:07;;;;;;;7.15;3.65;;;;;;;15.54;85.59;101475.53;6216527;23;20526;-68
2023/07/17 00:17:34;;;;;;;6.30;3.72;;;;;;;15.53;86.01;101472.06;6215705;23;20118;-68
2023/07/17 00:20:01;;;;;;;6.47;3.75;;;;;;;15.50;85.54;101472.13;6190313;23;20012;-68
2023/07/17 00:22:26;;;;;;;6.45;3.85;;;;;;;15.48;86.14;101475.69;6241741;23;20414;-68
2023/07/17 00:24:52;;;;;;;5.35;3.33;;;;;;;15.48;85.82;101473.91;6215553;23;20011;-68
2023/07/17 00:27:19;;;;;;;5.70;3.53;;;;;;;15.48;85.86;101479.19;6215655;23;20019;-68
2023/07/17 00:29:44;;;;;;;7.93;3.83;;;;;;;15.46;86.86;101472.19;6216229;23;20077;-68
2023/07/17 00:32:11;;;;;;;6.95;3.80;;;;;;;15.47;85.84;101480.09;6215009;23;20079;-68
2023/07/17 00:34:38;;;;;;;8.80;3.72;;;;;;;15.43;86.08;101475.81;6241958;22;20004;-68
2023/07/17 00:37:04;;;;;;;7.88;3.92;;;;;;;15.39;86.84;101468.84;6216170;23;20078;-68
2023/07/17 00:39:29;;;;;;;6.88;4.03;;;;;;;15.39;86.60;101482.06;6214786;23;20438;-68
2023/07/17 00:41:55;;;;;;;7.57;3.78;;;;;;;15.39;86.55;101484.69;6216385;23;20065;-68
2023/07/17 00:44:20;;;;;;;7.53;3.80;;;;;;;15.39;86.34;101480.28;6190979;23;20382;-68
2023/07/17 00:46:48;;;;;;;7.00;3.95;;;;;;;15.36;87.00;101484.75;6191173;23;20012;-68
2023/07/17 00:49:14;;;;;;;7.03;4.10;;;;;;;15.32;87.13;101486.59;6216154;23;20456;-68
2023/07/17 00:51:41;;;;;;;7.65;3.78;;;;;;;15.37;86.36;101492.66;6216539;23;20012;-68
2023/07/17 00:54:08;;;;;;;7.53;3.95;;;;;;;15.34;86.63;101494.47;6242290;22;20004;-68
2023/07/17 00:56:34;;;;;;;5.90;3.20;;;;;;;15.38;85.99;101501.44;6216142;23;20094;-68
2023/07/17 00:59:19;;;;;;;6.93;3.55;;;;;;;15.40;85.98;101502.25;6215112;23;20009;-68
2023/07/17 01:01:45;;;;;;;6.45;3.95;;;;;;;15.35;86.04;101509.41;6214933;23;20003;-68
2023/07/17 01:04:10;;;;;;;6.10;3.70;;;;;;;15.33;86.27;101504.19;6191172;22;20008;-68
2023/07/17 01:06:39;;;;;;;7.97;4.18;;;;;;;15.30;86.47;101512.16;6190748;23;20449;-68
2023/07/17 01:09:10;;;;;;;10.52;4.25;;;;;;;15.30;86.58;101513.91;6240491;23;20000;-68
2023/07/17 01:11:35;;;;;;;6.43;3.70;;;;;;;15.28;86.75;101499.88;6242441;23;20438;-68
2023/07/17 01:14:01;;;;;;;6.47;3.78;;;;;;;15.22;86.64;101499.09;6242063;22;20015;-68
2023/07/17 01:16:26;;;;;;;9.57;4.20;;;;;;;15.19;86.79;101499.16;6242042;23;20071;-68
2023/07/17 01:18:52;;;;;;;8.68;4.05;;;;;;;15.18;86.96;101502.69;6215850;23;20449;-68
2023/07/17 01:21:24;;;;;;;7.38;3.83;;;;;;;15.10;87.38;101504.66;6216301;23;20020;-68
2023/07/17 01:23:50;;;;;;;7.22;4.00;;;;;;;15.13;87.38;101501.94;6241026;23;20004;-68
2023/07/17 01:26:17;;;;;;;6.78;3.70;;;;;;;15.13;87.45;101504.59;6215772;23;20079;-67
2023/07/17 01:28:44;;;;;;;6.47;3.85;;;;;;;15.08;87.40;101503.78;6216117;23;20008;-67
2023/07/17 01:31:11;;;;;;;5.45;3.63;;;;;;;15.10;87.72;101506.41;6191479;23;20004;-68
2023/07/17 01:33:36;;;;;;;6.30;3.90;;;;;;;15.08;87.42;101517.00;6190442;23;20069;-68
2023/07/17 01:36:04;;;;;;;7.93;3.67;;;;;;;15.07;87.57;101520.56;6241708;22;20011;-67
2023/07/17 01:38:30;;;;;;;6.65;3.58;;;;;;;15.04;87.69;101520.59;6242321;23;20004;-68
2023/07/17 01:40:56;;;;;;;11.30;4.22;;;;;;;15.02;87.38;101525.03;6216400;23;20039;-70
2023/07/17 01:43:21;;;;;;;6.97;3.67;;;;;;;15.03;87.30;101521.50;6193400;23;20012;-70
2023/07/17 01:45:47;;;;;;;7.35;3.70;;;;;;;14.99;87.25;101512.75;6242483;22;20015;-70
2023/07/17 01:48:17;;;;;;;6.00;3.67;;;;;;;15.00;87.40;101514.50;6216941;23;20102;-70
2023/07/17 01:50:44;;;;;;;8.37;4.23;;;;;;;14.99;87.15;101514.53;6218751;23;20011;-70
2023/07/17 01:53:09;;;;;;;6.90;3.60;;;;;;;14.94;87.23;101498.81;6216985;23;20337;-70
2023/07/17 01:55:35;;;;;;;9.98;3.95;;;;;;;14.87;87.01;101505.09;6217423;23;20069;-70
2023/07/17 01:58:00;;;;;;;5.60;3.50;;;;;;;14.88;87.21;101504.19;6191480;23;20035;-70
2023/07/17 02:00:26;;;;;;;7.22;3.88;;;;;;;14.89;87.33;101508.56;6240781;23;20311;-70
2023/07/17 02:02:51;;;;;;;8.38;3.78;;;;;;;14.86;87.22;101500.72;6216226;23;20014;-70
2023/07/17 02:05:17;;;;;;;6.82;3.60;;;;;;;14.85;87.29;101512.16;6216353;23;20016;-70
2023/07/17 02:07:43;;;;;;;7.97;3.67;;;;;;;14.85;87.69;101506.88;6216739;23;20008;-70
2023/07/17 02:10:09;;;;;;;8.00;3.58;;;;;;;14.85;87.28;101504.25;6216200;23;20012;-70
2023/07/17 02:12:34;;;;;;;9.13;4.05;;;;;;;14.81;87.73;101516.63;6216689;23;20018;-70
2023/07/17 02:15:00;;;;;;;7.10;3.70;;;;;;;14.76;87.95;101502.66;6217894;23;20012;-70
2023/07/17 02:17:26;;;;;;;7.82;3.80;;;;;;;14.69;88.17;101511.56;6216892;23;20046;-70
2023/07/17 02:19:54;;;;;;;7.38;3.67;;;;;;;14.66;88.57;101507.22;6241413;23;20124;-71
2023/07/17 02:22:20;;;;;;;7.75;4.25;;;;;;;14.67;88.13;101503.69;6217490;23;20015;-70
2023/07/17 02:24:45;;;;;;;10.15;4.05;;;;;;;14.64;88.64;101511.66;6215886;23;20346;-70
2023/07/17 02:27:11;;;;;;;7.88;3.78;;;;;;;14.59;88.62;101512.63;6192269;23;20015;-70
2023/07/17 02:29:36;;;;;;;8.35;3.85;;;;;;;14.57;88.69;101510.00;6212565;23;20024;-70
2023/07/17 02:32:02;;;;;;;6.57;3.67;;;;;;;14.53;88.93;101508.31;6237129;23;20096;-70
2023/07/17 02:34:28;;;;;;;8.10;3.78;;;;;;;14.51;88.43;101510.97;6212522;23;20012;-70
2023/07/17 02:36:54;;;;;;;10.07;3.75;;;;;;;14.46;88.66;101523.34;6237211;23;20004;-70
2023/07/17 02:39:20;;;;;;;7.72;3.63;;;;;;;14.46;88.75;101518.09;6212016;23;20092;-70
2023/07/17 02:41:46;;;;;;;9.10;3.70;;;;;;;14.46;88.75;101522.50;6212214;23;20435;-70
2023/07/17 02:44:13;;;;;;;8.90;3.85;;;;;;;14.46;88.83;101523.34;6211673;23;20099;-70
2023/07/17 02:46:39;;;;;;;7.15;3.60;;;;;;;14.44;88.64;101529.56;6213619;23;20015;-70
2023/07/17 02:49:06;;;;;;;10.20;3.80;;;;;;;14.47;88.48;101535.66;6212693;23;20005;-70
2023/07/17 02:51:32;;;;;;;8.82;3.60;;;;;;;14.41;88.67;101530.50;6187824;23;20013;-70
2023/07/17 02:53:58;;;;;;;9.95;3.72;;;;;;;14.32;88.56;101526.25;6208628;23;20046;-70
2023/07/17 02:56:23;;;;;;;6.43;3.60;;;;;;;14.36;88.57;101535.81;6186901;23;20024;-70
2023/07/17 02:58:53;;;;;;;10.98;3.90;;;;;;;14.27;88.60;101541.25;6210882;23;20019;-70
2023/07/17 03:01:18;;;;;;;8.13;3.85;;;;;;;14.29;88.66;101533.31;6237864;23;20407;-70
2023/07/17 03:03:43;;;;;;;7.72;3.97;;;;;;;14.26;88.84;101538.66;6211184;23;20063;-70
2023/07/17 03:06:09;;;;;;;9.38;3.55;;;;;;;14.31;88.46;101542.97;6238448;22;20019;-70
2023/07/17 03:08:34;;;;;;;10.25;3.92;;;;;;;14.20;88.71;101543.13;6187322;23;20011;-70
2023/07/17 03:11:06;;;;;;;7.85;3.90;;;;;;;14.19;88.99;101541.41;6211217;23;20295;-70
2023/07/17 03:13:31;;;;;;;9.02;3.60;;;;;;;14.14;89.20;101543.22;6212863;23;20008;-70
2023/07/17 03:16:02;;;;;;;8.60;3.70;;;;;;;14.16;88.90;101554.59;6212966;23;20127;-70
2023/07/17 03:18:28;;;;;;;10.80;3.97;;;;;;;14.09;89.25;101546.81;6187661;23;20012;-70
2023/07/17 03:20:56;;;;;;;8.43;4.05;;;;;;;14.08;89.18;101550.34;6237776;23;20070;-70
2023/07/17 03:23:22;;;;;;;7.95;3.70;;;;;;;14.04;89.33;101553.03;6212076;23;20071;-70
2023/07/17 03:25:48;;;;;;;11.35;3.88;;;;;;;14.00;89.19;101561.84;6211220;23;20005;-70
2023/07/17 03:28:13;;;;;;;10.32;3.60;;;;;;;14.02;89.36;101564.47;6212734;23;20008;-70
2023/07/17 03:30:42;;;;;;;10.75;4.13;;;;;;;13.97;89.73;101555.78;6211006;23;20027;-70
2023/07/17 03:33:07;;;;;;;7.80;3.80;;;;;;;13.96;90.05;101564.56;6184771;23;20389;-70
2023/07/17 03:35:36;;;;;;;10.43;3.72;;;;;;;13.94;90.33;101555.84;6238528;22;20070;-70
2023/07/17 03:38:03;;;;;;;9.55;3.95;;;;;;;13.97;90.21;101556.63;6211645;23;20020;-70
2023/07/17 03:40:28;;;;;;;16.40;3.97;;;;;;;13.94;90.17;101556.69;6185767;23;20065;-70
2023/07/17 03:42:54;;;;;;;8.43;3.45;;;;;;;13.92;90.44;101552.31;6211535;23;20012;-70
2023/07/17 03:45:21;;;;;;;8.88;3.85;;;;;;;13.93;90.50;101554.06;6211589;23;20094;-70
2023/07/17 03:47:49;;;;;;;7.85;4.18;;;;;;;13.87;90.63;101565.56;6212485;23;20469;-70
2023/07/17 03:50:15;;;;;;;6.95;3.88;;;;;;;13.83;90.67;101559.50;6237302;23;20000;-70
2023/07/17 03:52:40;;;;;;;7.22;3.72;;;;;;;13.85;90.75;101556.84;6212568;23;20013;-70
2023/07/17 03:55:06;;;;;;;8.27;3.80;;;;;;;13.85;90.63;101559.47;6211021;23;20012;-70
2023/07/17 03:57:32;;;;;;;8.82;3.90;;;;;;;13.82;90.68;101563.00;6211621;23;20150;-70
2023/07/17 03:59:57;;;;;;;8.23;3.45;;;;;;;13.81;90.48;101563.03;6186189;23;20020;-70
2023/07/17 04:02:22;;;;;;;10.52;4.38;;;;;;;13.82;90.62;101560.38;6235771;23;20090;-70
2023/07/17 04:04:52;;;;;;;7.63;3.97;;;;;;;13.86;90.32;101569.97;6186839;23;20008;-70
2023/07/17 04:07:19;;;;;;;11.45;4.85;;;;;;;13.85;90.04;101568.22;6237677;23;20024;-70
2023/07/17 04:09:44;;;;;;;8.45;4.10;;;;;;;13.94;90.60;101572.50;6236911;23;20019;-70
2023/07/17 04:12:11;;;;;;;11.82;4.53;;;;;;;14.15;89.78;101575.69;6236369;23;20471;-70
2023/07/17 04:14:36;;;;;;;10.27;3.88;;;;;;;14.32;88.78;101586.00;6236677;22;20106;-70
2023/07/17 04:17:04;;;;;;;7.45;3.92;;;;;;;14.68;87.35;101583.69;6210464;23;20012;-70
2023/07/17 04:19:30;;;;;;;8.43;3.92;;;;;;;14.82;85.98;101576.41;6212170;23;20005;-70
2023/07/17 04:21:56;;;;;;;10.73;4.30;;;;;;;15.01;84.53;101576.06;6210650;23;20049;-70
2023/07/17 04:24:23;;;;;;;8.48;3.95;;;;;;;15.28;83.67;101581.75;6210737;23;20004;-70
2023/07/17 04:26:50;;;;;;;10.60;4.00;;;;;;;15.53;81.83;101585.63;6237235;23;20016;-70
2023/07/17 04:29:16;;;;;;;9.68;3.80;;;;;;;15.75;80.89;101593.09;6241214;23;20025;-70
2023/07/17 04:31:42;;;;;;;9.13;4.25;;;;;;;16.08;79.33;101595.94;6191986;23;20015;-70
2023/07/17 04:34:12;;;;;;;8.50;3.88;;;;;;;16.60;77.73;101592.03;6216436;22;20008;-70
2023/07/17 04:36:37;;;;;;;7.30;3.78;;;;;;;16.97;75.92;101592.91;6215327;23;20422;-70
2023/07/17 04:39:04;;;;;;;9.10;4.32;;;;;;;17.17;74.39;101600.34;6239354;23;20012;-70
2023/07/17 04:41:30;;;;;;;7.78;3.58;;;;;;;17.38;73.15;101608.59;6216527;23;20050;-70
2023/07/17 04:43:55;;;;;;;7.85;3.47;;;;;;;17.53;72.51;101602.84;6217181;22;20000;-70
2023/07/17 04:46:21;;;;;;;8.02;3.60;;;;;;;17.96;70.79;101612.22;6216761;23;20008;-70
2023/07/17 04:48:46;;;;;;;9.35;3.88;;;;;;;18.00;70.96;101613.88;6191031;23;20415;-70
2023/07/17 04:51:12;;;;;;;7.47;3.95;;;;;;;18.43;68.41;101618.72;6191303;23;20114;-70
2023/07/17 04:53:37;;;;;;;6.43;3.70;;;;;;;18.67;67.29;101622.38;6216135;23;20016;-70
2023/07/17 04:56:03;;;;;;;6.57;4.10;;;;;;;18.90;67.67;101620.75;6216414;23;20426;-70
2023/07/17 04:58:32;;;;;;;12.00;4.40;;;;;;;19.14;65.61;101624.38;6241328;23;20094;-70
2023/07/17 05:01:01;;;;;;;7.03;3.50;;;;;;;19.42;64.71;101623.38;6217310;23;20015;-70
2023/07/17 05:03:27;;;;;;;11.10;4.23;;;;;;;19.83;62.76;101629.81;6215650;23;20069;-70
2023/07/17 05:05:53;;;;;;;8.23;4.10;;;;;;;20.20;62.11;101635.50;6216207;23;20243;-69
2023/07/17 05:08:19;;;;;;;7.15;3.83;;;;;;;20.20;60.39;101632.84;6219288;23;20087;-70
2023/07/17 05:11:04;;;;;;;8.73;4.20;;;;;;;20.56;62.35;101632.31;6218672;23;20403;-70
2023/07/17 05:13:30;;;;;;;8.48;4.18;;;;;;;20.74;59.64;101633.34;6244826;23;20012;-70
2023/07/17 05:15:56;;;;;;;9.77;4.43;;;;;;;21.21;58.87;101626.94;6244144;22;20370;-70
2023/07/17 05:18:21;;;;;;;8.85;4.03;;;;;;;21.54;56.84;101631.72;6244320;23;20150;-70
2023/07/17 05:20:49;;;;;;;7.90;3.72;;;;;;;22.03;55.19;101634.75;6244829;23;20081;-70
2023/07/17 05:23:15;;;;;;;8.32;4.10;;;;;;;21.96;55.71;101642.19;6219357;23;20386;-70
2023/07/17 05:25:51;;;;;;;10.48;4.32;;;;;;;22.31;53.60;101641.44;6218208;23;20082;-70
2023/07/17 05:28:17;;;;;;;8.65;4.55;;;;;;;22.40;53.59;101646.38;6242009;23;20008;-69
2023/07/17 05:30:43;;;;;;;8.75;4.60;;;;;;;22.65;53.14;101645.16;6194144;23;20492;-68
2023/07/17 05:33:08;;;;;;;10.07;4.70;;;;;;;23.31;51.52;101638.28;6218991;23;20126;-68
2023/07/17 05:35:34;;;;;;;9.50;4.75;;;;;;;23.15;51.49;101651.59;6193916;23;20095;-68
2023/07/17 05:38:00;;;;;;;8.57;4.70;;;;;;;23.60;50.03;101650.06;6219164;23;20008;-68
2023/07/17 05:40:26;;;;;;;9.05;4.10;;;;;;;24.20;49.59;101651.31;6243823;23;20004;-68
2023/07/17 05:42:51;;;;;;;7.97;4.38;;;;;;;24.35;48.85;101663.84;6194198;23;20011;-68
2023/07/17 05:45:17;;;;;;;8.07;4.50;;;;;;;24.65;47.84;101662.16;6194140;23;20055;-68
2023/07/17 05:47:42;;;;;;;7.55;4.30;;;;;;;24.71;46.71;101661.81;6218605;23;20011;-68
2023/07/17 05:50:09;;;;;;;9.95;4.63;;;;;;;24.68;46.46;101665.56;6244286;23;20012;-68
2023/07/17 05:52:35;;;;;;;9.38;4.30;;;;;;;24.77;46.96;101666.81;6244218;23;20000;-68
2023/07/17 05:55:00;;;;;;;10.25;4.53;;;;;;;25.15;45.98;101662.81;6218159;23;20012;-68
2023/07/17 05:57:26;;;;;;;7.47;4.28;;;;;;;25.69;45.06;101662.22;6216796;23;20078;-68
2023/07/17 05:59:51;;;;;;;9.73;4.28;;;;;;;26.15;44.54;101670.06;6218714;23;20054;-68
2023/07/17 06:02:17;;;;;;;10.45;4.78;;;;;;;26.23;43.73;101666.88;6218223;23;20012;-68
2023/07/17 06:04:42;;;;;;;7.35;4.05;;;;;;;26.44;42.40;101673.53;6218640;23;20035;-68
2023/07/17 06:07:09;;;;;;;10.40;4.57;;;;;;;26.51;44.30;101675.81;6193008;23;20338;-68
2023/07/17 06:09:35;;;;;;;7.63;4.40;;;;;;;26.72;42.47;101670.84;6217199;23;20001;-68
2023/07/17 06:12:01;;;;;;;9.55;4.68;;;;;;;26.95;42.32;101675.56;6244016;23;20008;-68
2023/07/17 06:14:27;;;;;;;10.05;5.05;;;;;;;27.48;42.20;101677.34;6218803;23;20076;-68
2023/07/17 06:16:52;;;;;;;8.35;4.10;;;;;;;27.62;40.17;101685.28;6216192;23;20325;-68
2023/07/17 06:19:18;;;;;;;8.38;4.32;;;;;;;27.21;39.29;101686.34;6192197;23;20032;-69
2023/07/17 06:21:44;;;;;;;8.30;4.57;;;;;;;27.28;39.99;101686.78;6243894;23;20496;-69
2023/07/17 06:24:22;;;;;;;9.38;4.40;;;;;;;27.64;39.96;101688.75;6243528;22;20066;-69
2023/07/17 06:26:48;;;;;;;9.35;4.57;;;;;;;28.03;38.26;101695.94;6243784;23;20393;-69
2023/07/17 06:29:13;;;;;;;10.02;5.32;;;;;;;27.95;38.69;101688.38;6217062;23;20024;-69
2023/07/17 06:31:39;;;;;;;11.27;4.95;;;;;;;28.16;38.19;101697.63;6217307;23;20008;-69
2023/07/17 06:34:05;;;;;;;8.18;4.55;;;;;;;27.99;38.73;101698.84;6218414;22;20011;-69
2023/07/17 06:36:30;;;;;;;8.13;4.45;;;;;;;28.44;39.08;101700.97;6244017;23;20012;-69
2023/07/17 06:38:56;;;;;;;10.77;4.35;;;;;;;27.89;38.10;101703.16;6192539;23;20016;-69
2023/07/17 06:41:21;;;;;;;9.65;4.32;;;;;;;27.18;40.58;101701.81;6218629;23;20008;-69
2023/07/17 06:43:46;;;;;;;7.97;4.43;;;;;;;26.44;40.52;101704.91;6243880;23;20374;-69
2023/07/17 06:46:12;;;;;;;9.40;5.00;;;;;;;26.12;43.44;101707.88;6217396;23;20287;-69
2023/07/17 06:48:37;;;;;;;9.25;4.60;;;;;;;26.22;42.73;101709.00;6218019;23;20367;-69
2023/07/17 06:51:04;;;;;;;9.23;5.18;;;;;;;25.71;43.00;101711.28;6218619;23;20090;-69
2023/07/17 06:53:30;;;;;;;9.77;4.97;;;;;;;25.29;43.05;101712.94;6243664;23;20342;-68
2023/07/17 06:55:57;;;;;;;11.38;4.88;;;;;;;24.67;45.15;101716.56;6191840;23;20012;-69
2023/07/17 06:58:22;;;;;;;10.77;5.15;;;;;;;24.31;47.87;101723.00;6209612;23;20028;-69
2023/07/17 07:01:19;;;;;;;11.07;5.03;;;;;;;23.77;47.94;101721.41;6232728;23;20015;-69
2023/07/17 07:03:48;;;;;;;9.68;5.15;;;;;;;22.67;51.34;101728.78;6243043;23;20004;-70
2023/07/17 07:06:14;;;;;;;14.52;5.03;;;;;;;22.19;52.90;101716.78;6242617;22;20004;-70
2023/07/17 07:08:42;;;;;;;8.52;4.85;;;;;;;22.22;53.60;101716.66;6241541;23;20460;-70
2023/07/17 07:11:10;;;;;;;10.45;5.03;;;;;;;22.11;54.31;101723.34;6218159;23;20442;-69
2023/07/17 07:13:47;;;;;;;;;;;;;;;;;;;;;
2023/07/17 07:16:13;;;;;;;8.85;4.82;;;;;;;21.80;54.31;101726.56;6243424;22;20083;-68
2023/07/17 07:18:39;;;;;;;11.13;4.75;;;;;;;21.47;55.00;101729.75;6215531;23;20426;-71
2023/07/17 07:21:42;;;;;;;8.85;4.68;;;;;;;21.23;54.84;101742.31;6242795;23;20012;-68
2023/07/17 07:24:11;;;;;;;11.45;5.10;;;;;;;20.59;56.86;101736.03;6237874;22;20414;-69
2023/07/17 07:27:00;;;;;;;8.43;4.70;;;;;;;20.69;56.90;101742.75;6217275;23;20012;-69
2023/07/17 07:29:25;;;;;;;10.90;5.18;;;;;;;20.34;57.68;101737.00;6215562;23;20095;-70
2023/07/17 07:31:51;;;;;;;11.20;4.90;;;;;;;20.18;58.16;101746.47;6241019;23;20059;-69
2023/07/17 07:34:16;;;;;;;10.13;4.55;;;;;;;20.39;60.67;101742.97;6215016;22;20016;-69
2023/07/17 07:36:42;;;;;;;10.00;4.53;;;;;;;20.27;58.99;101751.47;6214831;23;20016;-69
2023/07/17 07:39:07;;;;;;;9.25;4.65;;;;;;;20.25;58.51;101747.97;6213539;23;20046;-69
2023/07/17 07:41:34;;;;;;;12.38;5.43;;;;;;;20.36;59.38;101751.09;6215749;23;20016;-69
2023/07/17 07:44:00;;;;;;;10.40;4.72;;;;;;;20.31;60.02;101753.03;6189932;22;20012;-69
2023/07/17 07:46:26;;;;;;;8.38;5.00;;;;;;;20.40;59.13;101755.38;6215799;23;20015;-68
2023/07/17 07:48:51;;;;;;;9.13;4.57;;;;;;;20.60;60.48;101764.38;6213972;23;20451;-69
2023/07/17 07:51:17;;;;;;;8.48;4.40;;;;;;;20.65;60.66;101754.41;6215011;23;20389;-69
2023/07/17 07:53:42;;;;;;;11.20;4.80;;;;;;;20.65;57.72;101758.88;6214119;23;20020;-69
2023/07/17 07:56:14;;;;;;;11.00;4.82;;;;;;;20.35;56.63;101762.66;6241019;22;20095;-69
2023/07/17 07:58:39;;;;;;;9.07;4.43;;;;;;;20.31;57.69;101763.69;6189038;23;20308;-69
2023/07/17 08:01:04;;;;;;;8.80;4.80;;;;;;;19.97;58.30;101767.63;6240645;23;20103;-69
2023/07/17 08:03:30;;;;;;;10.75;4.45;;;;;;;19.82;57.94;101773.50;6215671;23;20073;-69
2023/07/17 08:05:56;;;;;;;9.90;4.80;;;;;;;19.77;58.96;101770.09;6215676;23;20016;-69
2023/07/17 08:08:21;;;;;;;10.57;4.63;;;;;;;19.87;61.74;101771.56;6215998;23;20008;-69
2023/07/17 08:10:51;;;;;;;11.27;4.93;;;;;;;20.18;59.70;101767.75;6214605;23;20446;-69
2023/07/17 08:13:16;;;;;;;10.98;4.25;;;;;;;20.12;58.44;101768.84;6240679;23;20010;-69
2023/07/17 08:15:42;;;;;;;8.13;5.00;;;;;;;20.02;57.27;101768.31;6215607;23;20430;-69
2023/07/17 08:18:07;;;;;;;10.52;4.72;;;;;;;19.97;58.10;101770.28;6215277;23;20095;-69
2023/07/17 08:20:33;;;;;;;10.30;4.97;;;;;;;19.92;57.72;101777.56;6215734;23;20318;-70
2023/07/17 08:22:58;;;;;;;9.55;4.50;;;;;;;19.95;58.28;101772.13;6215482;23;20385;-70
2023/07/17 08:25:24;;;;;;;8.65;4.35;;;;;;;20.07;59.87;101770.84;6215239;23;20016;-69
2023/07/17 08:27:49;;;;;;;8.13;4.47;;;;;;;19.87;56.75;101769.75;6215557;23;20065;-69
2023/07/17 08:30:18;;;;;;;8.90;4.45;;;;;;;19.98;58.57;101772.00;6190063;23;20111;-69
2023/07/17 08:32:43;;;;;;;9.10;4.82;;;;;;;19.98;58.14;101771.16;6240779;23;20004;-70
2023/07/17 08:35:11;;;;;;;10.23;4.93;;;;;;;20.06;58.50;101774.41;6215953;23;20011;-69
2023/07/17 08:37:36;;;;;;;9.32;3.97;;;;;;;20.25;58.32;101782.56;6215877;23;20043;-70
2023/07/17 08:40:03;;;;;;;8.13;3.88;;;;;;;20.07;56.55;101785.00;6215169;23;20004;-69
2023/07/17 08:42:28;;;;;;;12.60;4.68;;;;;;;20.00;57.80;101779.97;6218368;23;20004;-69
2023/07/17 08:44:59;;;;;;;9.05;4.78;;;;;;;20.12;58.95;101789.28;6244671;22;20034;-69
2023/07/17 08:47:25;;;;;;;10.68;4.70;;;;;;;20.19;56.86;101769.50;6243609;23;20424;-69
2023/07/17 08:49:51;;;;;;;9.93;4.75;;;;;;;20.46;58.25;101782.66;6244277;23;20019;-69
2023/07/17 08:52:19;;;;;;;7.88;4.30;;;;;;;20.53;58.29;101784.16;6194228;23;20517;-69
2023/07/17 08:54:44;;;;;;;8.52;4.05;;;;;;;20.68;57.97;101788.09;6243786;22;20000;-69
2023/07/17 08:57:10;;;;;;;10.20;4.72;;;;;;;20.66;56.01;101788.09;6194398;23;20008;-70
2023/07/17 08:59:36;;;;;;;11.48;5.38;;;;;;;20.81;58.17;101789.31;6244308;23;20019;-69
2023/07/17 09:02:03;;;;;;;11.55;4.72;;;;;;;21.04;57.23;101785.72;6244156;23;20011;-69
2023/07/17 09:04:31;;;;;;;8.23;4.07;;;;;;;20.98;54.86;101785.97;6194119;23;20012;-69
2023/07/17 09:06:57;;;;;;;9.48;4.25;;;;;;;20.99;55.26;101787.72;6219230;23;20008;-69
2023/07/17 09:09:23;;;;;;;8.27;4.38;;;;;;;21.03;54.65;101793.78;6243716;23;20028;-69
2023/07/17 09:12:17;;;;;;;9.13;3.97;;;;;;;21.11;55.66;101789.88;6217536;23;20341;-69
2023/07/17 09:14:43;;;;;;;9.68;4.45;;;;;;;20.72;54.32;101789.69;6174405;23;20027;-69
2023/07/17 09:17:09;;;;;;;11.98;3.92;;;;;;;20.51;54.47;101789.56;6218216;23;20012;-69
2023/07/17 09:19:35;;;;;;;9.73;4.05;;;;;;;20.75;55.39;101790.44;6243777;23;20457;-69
2023/07/17 09:22:05;;;;;;;8.32;3.97;;;;;;;20.77;55.21;101791.25;6218948;23;20012;-69
2023/07/17 09:24:37;;;;;;;8.43;4.10;;;;;;;20.49;54.61;101793.22;6243217;22;20163;-69
2023/07/17 09:27:06;;;;;;;8.00;3.42;;;;;;;20.35;54.28;101791.94;6218280;23;20400;-69
2023/07/17 09:29:32;;;;;;;6.87;3.40;;;;;;;20.27;53.99;101793.16;6243697;23;20090;-69
2023/07/17 09:32:14;;;;;;;9.35;3.55;;;;;;;20.28;54.20;101795.75;6243922;23;20285;-69
2023/07/17 09:34:40;;;;;;;9.20;3.97;;;;;;;20.10;53.71;101785.78;6244178;22;20012;-69
2023/07/17 09:37:09;;;;;;;7.85;3.97;;;;;;;20.08;55.17;101797.38;6218739;23;20410;-69
2023/07/17 09:39:38;;;;;;;7.87;4.10;;;;;;;20.07;56.61;101790.31;6217032;23;20495;-69
2023/07/17 09:42:04;;;;;;;9.18;4.00;;;;;;;20.14;56.39;101784.75;6243791;23;20254;-69
2023/07/17 09:44:31;;;;;;;7.28;4.03;;;;;;;20.44;56.64;101785.38;6214239;23;20038;-69
2023/07/17 09:46:56;;;;;;;8.98;3.92;;;;;;;20.52;54.42;101785.13;6217823;23;20019;-69
2023/07/17 09:49:22;;;;;;;7.93;3.72;;;;;;;20.54;53.86;101789.47;6193966;23;20008;-70
2023/07/17 09:51:50;;;;;;;7.82;3.80;;;;;;;20.38;54.66;101786.50;6194990;23;20075;-69
2023/07/17 09:54:16;;;;;;;7.90;3.97;;;;;;;20.37;54.47;101795.44;6242289;22;20386;-69
2023/07/17 09:56:43;;;;;;;8.98;4.18;;;;;;;20.38;54.71;101794.47;6217273;23;20004;-69
2023/07/17 09:59:13;;;;;;;9.18;4.00;;;;;;;20.45;55.05;101794.25;6218266;23;20465;-69
2023/07/17 10:01:44;;;;;;;7.70;3.38;;;;;;;20.34;52.84;101787.56;6217932;23;20095;-70
2023/07/17 10:04:10;;;;;;;;;;;;;;;20.69;54.47;101796.00;6218605;22;20350;-69
2023/07/17 10:06:38;;;;;;;8.27;3.70;;;;;;;20.61;54.18;101798.06;6218345;23;19988;-69
2023/07/17 10:09:06;;;;;;;8.63;3.80;;;;;;;20.51;52.41;101794.03;6217415;23;20023;-69
2023/07/17 10:11:31;;;;;;;7.53;3.10;;;;;;;20.39;50.13;101793.56;6218861;23;20091;-70
2023/07/17 10:13:57;;;;;;;7.15;3.20;;;;;;;20.64;53.49;101797.94;6218496;22;20452;-69
2023/07/17 10:16:24;;;;;;;9.57;3.33;;;;;;;20.66;52.48;101785.44;6193338;23;20339;-70
2023/07/17 10:18:55;;;;;;;6.80;3.45;;;;;;;20.85;52.13;101798.06;6242717;23;20016;-69
2023/07/17 10:21:21;;;;;;;6.80;3.47;;;;;;;20.59;49.03;101791.94;6218096;23;20011;-70
2023/07/17 10:23:49;;;;;;;5.15;2.90;;;;;;;20.43;49.81;101792.53;6243060;23;20069;-70
2023/07/17 10:26:19;;;;;;;7.97;3.05;;;;;;;20.35;50.81;101807.91;6243612;22;20031;-69
2023/07/17 10:28:49;;;;;;;;;;;;;;;20.58;50.64;101792.84;6241812;23;20082;-69
2023/07/17 10:31:19;;;;;;;6.93;3.42;;;;;;;20.66;51.92;101792.53;6217899;23;19958;-69
2023/07/17 10:33:50;;;;;;;6.88;3.15;;;;;;;20.72;51.40;101805.69;6242534;23;20445;-69
2023/07/17 10:36:16;;;;;;;7.90;3.08;;;;;;;20.80;50.33;101798.22;6243168;22;20004;-69
2023/07/17 10:38:47;;;;;;;9.88;3.67;;;;;;;20.75;51.54;101794.91;6239882;23;20534;-69
2023/07/17 10:41:12;;;;;;;7.00;3.53;;;;;;;20.67;50.92;101791.66;6213680;23;20007;-69
2023/07/17 10:43:51;;;;;;;6.38;3.33;;;;;;;20.75;51.50;101794.91;6240999;23;20008;-69
2023/07/17 10:46:16;;;;;;;8.15;3.40;;;;;;;20.70;50.07;101802.19;6242927;22;20094;-70
2023/07/17 10:48:42;;;;;;;7.03;3.15;;;;;;;20.70;51.09;101791.53;6192519;23;20133;-69
2023/07/17 10:51:08;;;;;;;9.52;3.63;;;;;;;20.71;49.82;101793.28;6217645;23;20082;-69
2023/07/17 10:53:33;;;;;;;5.13;3.03;;;;;;;20.91;50.81;101803.16;6193154;23;20012;-70
2023/07/17 10:55:59;;;;;;;10.45;4.10;;;;;;;20.92;49.80;101797.75;6242556;22;20018;-70
2023/07/17 10:58:25;;;;;;;5.97;3.58;;;;;;;20.92;49.40;101796.91;6242857;23;20103;-69
2023/07/17 11:00:51;;;;;;;6.85;3.47;;;;;;;20.81;51.14;101799.97;6217675;23;20008;-69
2023/07/17 11:03:18;;;;;;;6.28;3.95;;;;;;;20.88;51.42;101796.13;6217501;23;20084;-69
2023/07/17 11:05:45;;;;;;;6.30;3.97;;;;;;;21.09;50.51;101794.41;6217506;23;20095;-69
2023/07/17 11:08:12;;;;;;;7.70;3.63;;;;;;;21.18;48.75;101793.16;6242882;23;20011;-69
2023/07/17 11:10:41;;;;;;;7.75;3.97;;;;;;;21.21;49.92;101794.84;6241786;23;20356;-69
2023/07/17 11:13:07;;;;;;;8.88;3.97;;;;;;;21.27;49.58;101791.91;6217474;23;20309;-70
2023/07/17 11:15:34;;;;;;;6.18;3.65;;;;;;;21.41;50.79;101794.88;6217842;23;20091;-69
2023/07/17 11:18:01;;;;;;;9.10;3.80;;;;;;;21.49;49.25;101783.00;6217594;23;20087;-69
2023/07/17 11:20:31;;;;;;;8.38;3.72;;;;;;;21.57;49.17;101788.91;6192685;23;20038;-69
2023/07/17 11:22:58;;;;;;;9.25;3.83;;;;;;;21.71;50.11;101785.66;6218018;23;20095;-69